sensor_id;sensor_type;location;lat;lon;timestamp;temperature;humidity
13697;DHT22;6920;50.080;8.226;2022-10-16T00:01:05;14.70;99.90
13697;DHT22;6920;50.080;8.226;2022-10-16T00:03:47;14.60;99.90
13697;DHT22;6920;50.080;8.226;2022-10-16T00:06:33;14.70;99.90
13697;DHT22;6920;50.080;8.226;2022-10-16T00:09:34;14.70;99.90
13697;DHT22;6920;50.080;8.226;2022-10-16T00:12:43;14.70;99.90
13697;DHT22;6920;50.080;8.226;2022-10-16T00:21:58;14.60;99.90
13697;DHT22;6920;50.080;8.226;2022-10-16T00:24:40;14.60;99.90
13697;DHT22;6920;50.080;8.226;2022-10-16T00:27:48;14.60;99.90
13697;DHT22;6920;50.080;8.226;2022-10-16T00:30:38;14.50;99.90
13697;DHT22;6920;50.080;8.226;2022-10-16T00:33:26;14.60;99.90
13697;DHT22;6920;50.080;8.226;2022-10-16T00:36:11;14.50;99.90
13697;DHT22;6920;50.080;8.226;2022-10-16T00:49:20;14.60;99.90
13697;DHT22;6920;50.080;8.226;2022-10-16T00:52:03;14.60;99.90
13697;DHT22;6920;50.080;8.226;2022-10-16T00:54:46;14.60;99.90
13697;DHT22;6920;50.080;8.226;2022-10-16T00:57:30;14.60;99.90
13697;DHT22;6920;50.080;8.226;2022-10-16T00:59:59;14.50;99.90
13697;DHT22;6920;50.080;8.226;2022-10-16T01:02:53;14.60;99.90
13697;DHT22;6920;50.080;8.226;2022-10-16T01:05:47;14.60;99.90
13697;DHT22;6920;50.080;8.226;2022-10-16T01:08:34;14.60;99.90
13697;DHT22;6920;50.080;8.226;2022-10-16T01:11:09;14.60;99.90
13697;DHT22;6920;50.080;8.226;2022-10-16T01:16:13;14.60;99.90
13697;DHT22;6920;50.080;8.226;2022-10-16T01:18:50;14.60;99.90
13697;DHT22;6920;50.080;8.226;2022-10-16T01:21:28;14.60;99.90
13697;DHT22;6920;50.080;8.226;2022-10-16T01:24:06;14.70;99.90
13697;DHT22;6920;50.080;8.226;2022-10-16T01:27:01;14.70;99.90
13697;DHT22;6920;50.080;8.226;2022-10-16T01:29:34;14.70;99.90
13697;DHT22;6920;50.080;8.226;2022-10-16T01:32:15;14.80;99.90
13697;DHT22;6920;50.080;8.226;2022-10-16T01:34:52;14.80;99.90
13697;DHT22;6920;50.080;8.226;2022-10-16T01:37:35;14.90;99.90
13697;DHT22;6920;50.080;8.226;2022-10-16T01:40:18;14.80;99.90
13697;DHT22;6920;50.080;8.226;2022-10-16T01:42:55;14.80;99.90
13697;DHT22;6920;50.080;8.226;2022-10-16T01:45:25;14.80;99.90
13697;DHT22;6920;50.080;8.226;2022-10-16T01:47:57;14.80;99.90
13697;DHT22;6920;50.080;8.226;2022-10-16T01:50:26;14.70;99.90
13697;DHT22;6920;50.080;8.226;2022-10-16T01:52:56;14.70;99.90
13697;DHT22;6920;50.080;8.226;2022-10-16T01:55:32;14.70;99.90
13697;DHT22;6920;50.080;8.226;2022-10-16T01:58:05;14.70;99.90
13697;DHT22;6920;50.080;8.226;2022-10-16T02:00:38;14.60;99.90
13697;DHT22;6920;50.080;8.226;2022-10-16T02:03:07;14.70;99.90
13697;DHT22;6920;50.080;8.226;2022-10-16T02:05:40;14.70;99.90
13697;DHT22;6920;50.080;8.226;2022-10-16T02:08:08;14.70;99.90
13697;DHT22;6920;50.080;8.226;2022-10-16T02:10:35;14.80;99.90
13697;DHT22;6920;50.080;8.226;2022-10-16T02:13:06;14.80;99.90
13697;DHT22;6920;50.080;8.226;2022-10-16T02:15:41;14.80;99.90
13697;DHT22;6920;50.080;8.226;2022-10-16T02:18:12;14.80;99.90
13697;DHT22;6920;50.080;8.226;2022-10-16T02:20:47;14.70;99.90
13697;DHT22;6920;50.080;8.226;2022-10-16T02:23:22;14.70;99.90
13697;DHT22;6920;50.080;8.226;2022-10-16T02:25:54;14.80;99.90
13697;DHT22;6920;50.080;8.226;2022-10-16T02:28:33;14.80;99.90
13697;DHT22;6920;50.080;8.226;2022-10-16T02:31:11;14.90;99.90
13697;DHT22;6920;50.080;8.226;2022-10-16T02:33:42;14.80;99.90
13697;DHT22;6920;50.080;8.226;2022-10-16T02:36:10;14.80;99.90
13697;DHT22;6920;50.080;8.226;2022-10-16T02:38:38;14.70;99.90
13697;DHT22;6920;50.080;8.226;2022-10-16T02:41:06;14.70;99.90
13697;DHT22;6920;50.080;8.226;2022-10-16T02:43:40;14.70;99.90
13697;DHT22;6920;50.080;8.226;2022-10-16T02:46:08;14.70;99.90
13697;DHT22;6920;50.080;8.226;2022-10-16T02:48:36;14.70;99.90
13697;DHT22;6920;50.080;8.226;2022-10-16T02:51:05;14.60;99.90
13697;DHT22;6920;50.080;8.226;2022-10-16T02:53:33;14.60;99.90
13697;DHT22;6920;50.080;8.226;2022-10-16T02:56:01;14.60;99.90
13697;DHT22;6920;50.080;8.226;2022-10-16T02:58:30;14.60;99.90
13697;DHT22;6920;50.080;8.226;2022-10-16T03:00:59;14.70;99.90
13697;DHT22;6920;50.080;8.226;2022-10-16T03:03:28;14.70;99.90
13697;DHT22;6920;50.080;8.226;2022-10-16T03:05:56;14.60;99.90
13697;DHT22;6920;50.080;8.226;2022-10-16T03:08:24;14.60;99.90
13697;DHT22;6920;50.080;8.226;2022-10-16T03:10:54;14.70;99.90
13697;DHT22;6920;50.080;8.226;2022-10-16T03:13:21;14.60;99.90
13697;DHT22;6920;50.080;8.226;2022-10-16T03:15:49;14.70;99.90
13697;DHT22;6920;50.080;8.226;2022-10-16T03:18:22;14.70;99.90
13697;DHT22;6920;50.080;8.226;2022-10-16T03:20:51;14.70;99.90
13697;DHT22;6920;50.080;8.226;2022-10-16T03:23:21;14.60;99.90
13697;DHT22;6920;50.080;8.226;2022-10-16T03:25:50;14.60;99.90
13697;DHT22;6920;50.080;8.226;2022-10-16T03:28:21;14.70;99.90
13697;DHT22;6920;50.080;8.226;2022-10-16T03:30:48;14.70;99.90
13697;DHT22;6920;50.080;8.226;2022-10-16T03:33:19;14.60;99.90
13697;DHT22;6920;50.080;8.226;2022-10-16T03:35:54;14.60;99.90
13697;DHT22;6920;50.080;8.226;2022-10-16T03:38:33;14.60;99.90
13697;DHT22;6920;50.080;8.226;2022-10-16T03:41:10;14.60;99.90
13697;DHT22;6920;50.080;8.226;2022-10-16T03:43:37;14.60;99.90
13697;DHT22;6920;50.080;8.226;2022-10-16T03:46:06;14.60;99.90
13697;DHT22;6920;50.080;8.226;2022-10-16T03:48:34;14.70;99.90
13697;DHT22;6920;50.080;8.226;2022-10-16T03:51:03;14.70;99.90
13697;DHT22;6920;50.080;8.226;2022-10-16T03:53:32;14.70;99.90
13697;DHT22;6920;50.080;8.226;2022-10-16T03:58:30;14.80;99.90
13697;DHT22;6920;50.080;8.226;2022-10-16T04:00:58;14.20;99.90
13697;DHT22;6920;50.080;8.226;2022-10-16T04:03:28;14.90;99.90
13697;DHT22;6920;50.080;8.226;2022-10-16T04:05:58;14.80;99.90
13697;DHT22;6920;50.080;8.226;2022-10-16T04:08:26;14.80;99.90
13697;DHT22;6920;50.080;8.226;2022-10-16T04:10:54;14.80;99.90
13697;DHT22;6920;50.080;8.226;2022-10-16T04:13:23;14.90;99.90
13697;DHT22;6920;50.080;8.226;2022-10-16T04:15:52;14.90;99.90
13697;DHT22;6920;50.080;8.226;2022-10-16T04:18:23;14.90;99.90
13697;DHT22;6920;50.080;8.226;2022-10-16T04:20:54;14.80;99.90
13697;DHT22;6920;50.080;8.226;2022-10-16T04:23:27;14.80;99.90
13697;DHT22;6920;50.080;8.226;2022-10-16T04:25:56;14.70;99.90
13697;DHT22;6920;50.080;8.226;2022-10-16T04:28:29;14.90;99.90
13697;DHT22;6920;50.080;8.226;2022-10-16T04:30:56;15.00;99.90
13697;DHT22;6920;50.080;8.226;2022-10-16T04:33:25;15.00;99.90
13697;DHT22;6920;50.080;8.226;2022-10-16T04:35:59;14.90;99.90
13697;DHT22;6920;50.080;8.226;2022-10-16T04:38:29;14.90;99.90
13697;DHT22;6920;50.080;8.226;2022-10-16T04:40:59;14.90;99.90
13697;DHT22;6920;50.080;8.226;2022-10-16T04:43:29;14.90;99.90
13697;DHT22;6920;50.080;8.226;2022-10-16T04:45:58;14.90;99.90
13697;DHT22;6920;50.080;8.226;2022-10-16T04:48:25;15.00;99.90
13697;DHT22;6920;50.080;8.226;2022-10-16T04:50:56;14.90;99.90
13697;DHT22;6920;50.080;8.226;2022-10-16T04:53:25;15.10;99.90
13697;DHT22;6920;50.080;8.226;2022-10-16T04:55:53;15.00;99.90
13697;DHT22;6920;50.080;8.226;2022-10-16T04:58:21;14.90;99.90
13697;DHT22;6920;50.080;8.226;2022-10-16T05:00:50;14.80;99.90
13697;DHT22;6920;50.080;8.226;2022-10-16T05:03:19;14.80;99.90
13697;DHT22;6920;50.080;8.226;2022-10-16T05:08:22;14.80;99.90
13697;DHT22;6920;50.080;8.226;2022-10-16T05:10:53;14.80;99.90
13697;DHT22;6920;50.080;8.226;2022-10-16T05:13:22;14.90;99.90
13697;DHT22;6920;50.080;8.226;2022-10-16T05:15:49;14.90;99.90
13697;DHT22;6920;50.080;8.226;2022-10-16T05:18:17;14.90;99.90
13697;DHT22;6920;50.080;8.226;2022-10-16T05:20:46;14.90;99.90
13697;DHT22;6920;50.080;8.226;2022-10-16T05:23:14;15.00;99.90
13697;DHT22;6920;50.080;8.226;2022-10-16T05:28:15;14.90;99.90
13697;DHT22;6920;50.080;8.226;2022-10-16T05:30:45;14.90;99.90
13697;DHT22;6920;50.080;8.226;2022-10-16T05:33:12;14.90;99.90
13697;DHT22;6920;50.080;8.226;2022-10-16T05:35:39;14.90;99.90
13697;DHT22;6920;50.080;8.226;2022-10-16T05:38:07;14.90;99.90
13697;DHT22;6920;50.080;8.226;2022-10-16T05:40:36;14.90;99.90
13697;DHT22;6920;50.080;8.226;2022-10-16T05:43:07;14.80;99.90
13697;DHT22;6920;50.080;8.226;2022-10-16T05:45:38;14.90;99.90
13697;DHT22;6920;50.080;8.226;2022-10-16T05:48:06;14.90;99.90
13697;DHT22;6920;50.080;8.226;2022-10-16T05:50:33;14.90;99.90
13697;DHT22;6920;50.080;8.226;2022-10-16T05:53:02;14.90;99.90
13697;DHT22;6920;50.080;8.226;2022-10-16T05:55:31;14.90;99.90
13697;DHT22;6920;50.080;8.226;2022-10-16T05:58:00;14.90;99.90
13697;DHT22;6920;50.080;8.226;2022-10-16T06:00:28;14.90;99.90
13697;DHT22;6920;50.080;8.226;2022-10-16T06:03:02;14.90;99.90
13697;DHT22;6920;50.080;8.226;2022-10-16T06:05:34;14.80;99.90
13697;DHT22;6920;50.080;8.226;2022-10-16T06:08:24;14.80;99.90
13697;DHT22;6920;50.080;8.226;2022-10-16T06:11:01;14.90;99.90
13697;DHT22;6920;50.080;8.226;2022-10-16T06:13:29;14.90;99.90
13697;DHT22;6920;50.080;8.226;2022-10-16T06:16:11;14.90;99.90
13697;DHT22;6920;50.080;8.226;2022-10-16T06:22:18;15.00;99.90
13697;DHT22;6920;50.080;8.226;2022-10-16T06:24:49;15.00;99.90
13697;DHT22;6920;50.080;8.226;2022-10-16T06:27:32;15.00;99.90
13697;DHT22;6920;50.080;8.226;2022-10-16T06:30:17;15.00;99.90
13697;DHT22;6920;50.080;8.226;2022-10-16T06:33:12;15.00;99.90
13697;DHT22;6920;50.080;8.226;2022-10-16T06:36:10;14.90;99.90
13697;DHT22;6920;50.080;8.226;2022-10-16T06:38:57;14.90;99.90
13697;DHT22;6920;50.080;8.226;2022-10-16T06:41:39;14.90;99.90
13697;DHT22;6920;50.080;8.226;2022-10-16T06:44:10;14.90;99.90
13697;DHT22;6920;50.080;8.226;2022-10-16T06:46:43;14.90;99.90
13697;DHT22;6920;50.080;8.226;2022-10-16T06:49:24;14.90;99.90
13697;DHT22;6920;50.080;8.226;2022-10-16T06:51:53;15.00;99.90
13697;DHT22;6920;50.080;8.226;2022-10-16T06:54:42;15.10;99.90
13697;DHT22;6920;50.080;8.226;2022-10-16T06:57:10;15.00;99.90
13697;DHT22;6920;50.080;8.226;2022-10-16T07:02:11;15.00;99.90
13697;DHT22;6920;50.080;8.226;2022-10-16T07:04:41;15.10;99.90
13697;DHT22;6920;50.080;8.226;2022-10-16T07:07:12;15.10;99.90
13697;DHT22;6920;50.080;8.226;2022-10-16T07:10:07;15.10;99.90
13697;DHT22;6920;50.080;8.226;2022-10-16T07:12:49;15.20;99.90
13697;DHT22;6920;50.080;8.226;2022-10-16T07:15:19;15.20;99.90
13697;DHT22;6920;50.080;8.226;2022-10-16T07:20:28;15.30;99.90
13697;DHT22;6920;50.080;8.226;2022-10-16T07:23:09;15.40;99.90
13697;DHT22;6920;50.080;8.226;2022-10-16T07:28:49;15.50;99.90
13697;DHT22;6920;50.080;8.226;2022-10-16T07:31:22;15.50;99.90
13697;DHT22;6920;50.080;8.226;2022-10-16T07:33:57;15.30;99.90
13697;DHT22;6920;50.080;8.226;2022-10-16T07:36:29;15.30;99.90
13697;DHT22;6920;50.080;8.226;2022-10-16T07:41:38;15.30;99.90
13697;DHT22;6920;50.080;8.226;2022-10-16T07:44:38;15.30;99.90
13697;DHT22;6920;50.080;8.226;2022-10-16T07:47:06;15.30;99.90
13697;DHT22;6920;50.080;8.226;2022-10-16T07:49:37;15.50;99.90
13697;DHT22;6920;50.080;8.226;2022-10-16T07:52:14;15.60;99.90
13697;DHT22;6920;50.080;8.226;2022-10-16T07:54:43;15.60;99.90
13697;DHT22;6920;50.080;8.226;2022-10-16T07:57:16;15.60;99.90
13697;DHT22;6920;50.080;8.226;2022-10-16T08:00:01;15.70;99.90
13697;DHT22;6920;50.080;8.226;2022-10-16T08:02:31;15.70;99.90
13697;DHT22;6920;50.080;8.226;2022-10-16T08:05:01;15.70;99.90
13697;DHT22;6920;50.080;8.226;2022-10-16T08:07:30;15.70;99.90
13697;DHT22;6920;50.080;8.226;2022-10-16T08:10:16;15.80;99.90
13697;DHT22;6920;50.080;8.226;2022-10-16T08:12:49;15.70;99.90
13697;DHT22;6920;50.080;8.226;2022-10-16T08:15:25;15.70;99.90
13697;DHT22;6920;50.080;8.226;2022-10-16T08:17:58;15.90;99.90
13697;DHT22;6920;50.080;8.226;2022-10-16T08:20:29;15.70;99.90
13697;DHT22;6920;50.080;8.226;2022-10-16T08:22:58;15.80;99.90
13697;DHT22;6920;50.080;8.226;2022-10-16T08:25:29;15.80;99.90
13697;DHT22;6920;50.080;8.226;2022-10-16T08:28:02;15.80;99.90
13697;DHT22;6920;50.080;8.226;2022-10-16T08:30:42;15.80;99.90
13697;DHT22;6920;50.080;8.226;2022-10-16T08:33:12;15.80;99.90
13697;DHT22;6920;50.080;8.226;2022-10-16T08:35:50;15.80;99.90
13697;DHT22;6920;50.080;8.226;2022-10-16T08:38:19;15.80;99.90
13697;DHT22;6920;50.080;8.226;2022-10-16T08:41:27;15.80;99.90
13697;DHT22;6920;50.080;8.226;2022-10-16T08:44:36;15.80;99.90
13697;DHT22;6920;50.080;8.226;2022-10-16T08:47:16;15.80;99.90
13697;DHT22;6920;50.080;8.226;2022-10-16T08:49:58;15.90;99.90
13697;DHT22;6920;50.080;8.226;2022-10-16T08:52:39;15.90;99.90
13697;DHT22;6920;50.080;8.226;2022-10-16T08:55:41;16.00;99.90
13697;DHT22;6920;50.080;8.226;2022-10-16T08:58:17;16.10;99.90
13697;DHT22;6920;50.080;8.226;2022-10-16T09:00:49;16.20;99.90
13697;DHT22;6920;50.080;8.226;2022-10-16T09:03:38;16.20;99.90
13697;DHT22;6920;50.080;8.226;2022-10-16T09:06:37;16.10;99.90
13697;DHT22;6920;50.080;8.226;2022-10-16T09:09:21;16.10;99.90
13697;DHT22;6920;50.080;8.226;2022-10-16T09:12:18;16.00;99.90
13697;DHT22;6920;50.080;8.226;2022-10-16T09:14:58;16.10;99.90
13697;DHT22;6920;50.080;8.226;2022-10-16T09:17:41;16.10;99.90
13697;DHT22;6920;50.080;8.226;2022-10-16T09:20:53;16.10;99.90
13697;DHT22;6920;50.080;8.226;2022-10-16T09:23:27;16.20;99.90
13697;DHT22;6920;50.080;8.226;2022-10-16T09:25:55;16.30;99.90
13697;DHT22;6920;50.080;8.226;2022-10-16T09:28:26;16.40;99.90
13697;DHT22;6920;50.080;8.226;2022-10-16T09:30:54;16.50;99.90
13697;DHT22;6920;50.080;8.226;2022-10-16T09:33:33;16.60;99.90
13697;DHT22;6920;50.080;8.226;2022-10-16T09:36:11;16.50;99.90
13697;DHT22;6920;50.080;8.226;2022-10-16T09:38:41;16.50;99.90
13697;DHT22;6920;50.080;8.226;2022-10-16T09:41:18;16.40;99.90
13697;DHT22;6920;50.080;8.226;2022-10-16T09:44:06;16.50;99.90
13697;DHT22;6920;50.080;8.226;2022-10-16T09:47:02;16.60;99.90
13697;DHT22;6920;50.080;8.226;2022-10-16T09:49:36;16.60;99.90
13697;DHT22;6920;50.080;8.226;2022-10-16T09:52:18;16.80;99.90
13697;DHT22;6920;50.080;8.226;2022-10-16T09:57:29;16.90;99.90
13697;DHT22;6920;50.080;8.226;2022-10-16T10:00:15;17.20;99.90
13697;DHT22;6920;50.080;8.226;2022-10-16T10:02:54;17.50;99.90
13697;DHT22;6920;50.080;8.226;2022-10-16T10:05:25;17.70;99.90
13697;DHT22;6920;50.080;8.226;2022-10-16T10:07:57;17.90;99.90
13697;DHT22;6920;50.080;8.226;2022-10-16T10:10:41;17.90;99.90
13697;DHT22;6920;50.080;8.226;2022-10-16T10:13:18;18.00;99.90
13697;DHT22;6920;50.080;8.226;2022-10-16T10:15:47;18.00;99.90
13697;DHT22;6920;50.080;8.226;2022-10-16T10:18:17;17.90;99.90
13697;DHT22;6920;50.080;8.226;2022-10-16T10:20:57;18.00;99.90
13697;DHT22;6920;50.080;8.226;2022-10-16T10:23:30;18.10;99.90
13697;DHT22;6920;50.080;8.226;2022-10-16T10:26:09;18.00;99.90
13697;DHT22;6920;50.080;8.226;2022-10-16T10:28:53;18.90;99.90
13697;DHT22;6920;50.080;8.226;2022-10-16T10:31:36;19.20;99.90
13697;DHT22;6920;50.080;8.226;2022-10-16T10:34:32;19.20;99.90
13697;DHT22;6920;50.080;8.226;2022-10-16T10:37:14;19.10;99.90
13697;DHT22;6920;50.080;8.226;2022-10-16T10:40:14;19.10;99.90
13697;DHT22;6920;50.080;8.226;2022-10-16T10:42:55;19.00;99.90
13697;DHT22;6920;50.080;8.226;2022-10-16T10:45:41;18.90;99.90
13697;DHT22;6920;50.080;8.226;2022-10-16T10:51:04;18.90;99.90
13697;DHT22;6920;50.080;8.226;2022-10-16T10:53:48;18.90;99.90
13697;DHT22;6920;50.080;8.226;2022-10-16T10:56:42;18.90;99.90
13697;DHT22;6920;50.080;8.226;2022-10-16T10:59:38;18.70;99.90
13697;DHT22;6920;50.080;8.226;2022-10-16T11:02:34;18.60;99.90
13697;DHT22;6920;50.080;8.226;2022-10-16T11:08:07;18.70;99.90
13697;DHT22;6920;50.080;8.226;2022-10-16T11:10:51;19.20;99.90
13697;DHT22;6920;50.080;8.226;2022-10-16T11:16:15;20.30;99.90
13697;DHT22;6920;50.080;8.226;2022-10-16T11:18:49;20.20;99.90
13697;DHT22;6920;50.080;8.226;2022-10-16T11:21:22;19.90;99.90
13697;DHT22;6920;50.080;8.226;2022-10-16T11:24:06;19.70;99.90
13697;DHT22;6920;50.080;8.226;2022-10-16T11:26:46;19.60;99.90
13697;DHT22;6920;50.080;8.226;2022-10-16T11:29:23;19.40;99.90
13697;DHT22;6920;50.080;8.226;2022-10-16T11:31:58;19.70;99.90
13697;DHT22;6920;50.080;8.226;2022-10-16T11:37:19;19.90;99.90
13697;DHT22;6920;50.080;8.226;2022-10-16T11:40:11;20.40;99.90
13697;DHT22;6920;50.080;8.226;2022-10-16T11:42:50;20.30;99.90
13697;DHT22;6920;50.080;8.226;2022-10-16T11:45:34;20.10;99.90
13697;DHT22;6920;50.080;8.226;2022-10-16T11:48:40;20.40;99.90
13697;DHT22;6920;50.080;8.226;2022-10-16T11:51:26;21.10;99.90
13697;DHT22;6920;50.080;8.226;2022-10-16T11:54:01;21.20;99.90
13697;DHT22;6920;50.080;8.226;2022-10-16T11:56:32;21.10;99.90
13697;DHT22;6920;50.080;8.226;2022-10-16T11:59:07;20.70;99.90
13697;DHT22;6920;50.080;8.226;2022-10-16T12:01:42;20.60;99.90
13697;DHT22;6920;50.080;8.226;2022-10-16T12:11:05;20.30;99.90
13697;DHT22;6920;50.080;8.226;2022-10-16T12:13:40;20.00;99.90
13697;DHT22;6920;50.080;8.226;2022-10-16T12:16:28;19.90;99.90
13697;DHT22;6920;50.080;8.226;2022-10-16T12:19:13;19.80;99.90
13697;DHT22;6920;50.080;8.226;2022-10-16T12:21:41;19.70;99.90
13697;DHT22;6920;50.080;8.226;2022-10-16T12:24:24;19.70;99.90
13697;DHT22;6920;50.080;8.226;2022-10-16T12:27:27;19.60;99.90
13697;DHT22;6920;50.080;8.226;2022-10-16T12:29:57;19.60;99.90
13697;DHT22;6920;50.080;8.226;2022-10-16T12:32:35;19.70;99.90
13697;DHT22;6920;50.080;8.226;2022-10-16T12:35:18;19.50;99.90
13697;DHT22;6920;50.080;8.226;2022-10-16T12:38:12;19.50;99.90
13697;DHT22;6920;50.080;8.226;2022-10-16T12:41:08;19.30;99.90
13697;DHT22;6920;50.080;8.226;2022-10-16T12:43:44;19.30;99.90
13697;DHT22;6920;50.080;8.226;2022-10-16T12:46:39;19.40;99.90
13697;DHT22;6920;50.080;8.226;2022-10-16T12:49:31;19.40;99.90
13697;DHT22;6920;50.080;8.226;2022-10-16T12:52:03;19.30;99.90
13697;DHT22;6920;50.080;8.226;2022-10-16T12:54:59;19.40;99.90
13697;DHT22;6920;50.080;8.226;2022-10-16T13:00:56;19.80;99.90
13697;DHT22;6920;50.080;8.226;2022-10-16T13:03:49;19.40;99.90
13697;DHT22;6920;50.080;8.226;2022-10-16T13:06:33;19.50;99.90
13697;DHT22;6920;50.080;8.226;2022-10-16T13:09:44;19.60;99.90
13697;DHT22;6920;50.080;8.226;2022-10-16T13:12:40;19.70;99.90
13697;DHT22;6920;50.080;8.226;2022-10-16T13:15:45;19.70;99.90
13697;DHT22;6920;50.080;8.226;2022-10-16T13:21:51;20.40;99.90
13697;DHT22;6920;50.080;8.226;2022-10-16T13:24:41;20.40;99.90
13697;DHT22;6920;50.080;8.226;2022-10-16T13:27:31;20.10;99.90
13697;DHT22;6920;50.080;8.226;2022-10-16T13:30:11;20.00;99.90
13697;DHT22;6920;50.080;8.226;2022-10-16T13:32:45;20.00;99.90
13697;DHT22;6920;50.080;8.226;2022-10-16T13:35:30;19.90;99.90
13697;DHT22;6920;50.080;8.226;2022-10-16T13:38:15;19.90;99.90
13697;DHT22;6920;50.080;8.226;2022-10-16T13:41:14;19.90;99.90
13697;DHT22;6920;50.080;8.226;2022-10-16T13:46:16;20.10;99.90
13697;DHT22;6920;50.080;8.226;2022-10-16T13:48:59;20.10;99.90
13697;DHT22;6920;50.080;8.226;2022-10-16T13:54:03;20.10;99.90
13697;DHT22;6920;50.080;8.226;2022-10-16T14:06:42;19.80;99.90
13697;DHT22;6920;50.080;8.226;2022-10-16T14:09:19;19.90;99.90
13697;DHT22;6920;50.080;8.226;2022-10-16T14:24:53;20.10;99.90
13697;DHT22;6920;50.080;8.226;2022-10-16T14:27:31;20.20;99.90
13697;DHT22;6920;50.080;8.226;2022-10-16T14:30:15;20.20;99.90
13697;DHT22;6920;50.080;8.226;2022-10-16T14:35:37;20.20;99.90
13697;DHT22;6920;50.080;8.226;2022-10-16T14:41:15;20.10;99.90
13697;DHT22;6920;50.080;8.226;2022-10-16T14:49:17;20.00;99.90
13697;DHT22;6920;50.080;8.226;2022-10-16T14:51:59;20.00;99.90
13697;DHT22;6920;50.080;8.226;2022-10-16T14:54:28;20.00;99.90
13697;DHT22;6920;50.080;8.226;2022-10-16T14:57:19;20.00;99.90
13697;DHT22;6920;50.080;8.226;2022-10-16T15:02:18;20.00;99.90
13697;DHT22;6920;50.080;8.226;2022-10-16T15:15:57;19.90;99.90
13697;DHT22;6920;50.080;8.226;2022-10-16T15:18:27;20.00;99.90
13697;DHT22;6920;50.080;8.226;2022-10-16T15:29:02;19.80;99.90
13697;DHT22;6920;50.080;8.226;2022-10-16T15:31:50;19.70;99.90
13697;DHT22;6920;50.080;8.226;2022-10-16T15:37:08;19.70;99.90
13697;DHT22;6920;50.080;8.226;2022-10-16T15:47:31;19.70;99.90
13697;DHT22;6920;50.080;8.226;2022-10-16T16:02:50;19.50;99.90
13697;DHT22;6920;50.080;8.226;2022-10-16T16:10:20;19.40;99.90
13697;DHT22;6920;50.080;8.226;2022-10-16T16:18:09;19.30;99.90
13697;DHT22;6920;50.080;8.226;2022-10-16T16:23:10;19.20;99.90
13697;DHT22;6920;50.080;8.226;2022-10-16T16:25:41;19.20;99.90
13697;DHT22;6920;50.080;8.226;2022-10-16T16:28:12;19.10;99.90
13697;DHT22;6920;50.080;8.226;2022-10-16T16:36:07;19.00;99.90
13697;DHT22;6920;50.080;8.226;2022-10-16T16:41:12;18.90;99.90
13697;DHT22;6920;50.080;8.226;2022-10-16T16:43:42;18.90;99.90
13697;DHT22;6920;50.080;8.226;2022-10-16T16:53:54;18.60;99.90
13697;DHT22;6920;50.080;8.226;2022-10-16T16:56:24;18.60;99.90
13697;DHT22;6920;50.080;8.226;2022-10-16T16:58:54;18.50;99.90
13697;DHT22;6920;50.080;8.226;2022-10-16T17:01:23;18.50;99.90
13697;DHT22;6920;50.080;8.226;2022-10-16T17:06:33;18.30;99.90
13697;DHT22;6920;50.080;8.226;2022-10-16T17:09:05;18.30;99.90
13697;DHT22;6920;50.080;8.226;2022-10-16T17:29:31;17.90;99.90
13697;DHT22;6920;50.080;8.226;2022-10-16T17:32:06;17.90;99.90
13697;DHT22;6920;50.080;8.226;2022-10-16T17:53:21;17.30;99.90
13697;DHT22;6920;50.080;8.226;2022-10-16T18:17:00;16.70;99.90
13697;DHT22;6920;50.080;8.226;2022-10-16T18:19:42;16.70;99.90
13697;DHT22;6920;50.080;8.226;2022-10-16T18:29:56;16.60;99.90
13697;DHT22;6920;50.080;8.226;2022-10-16T18:42:37;16.50;99.90
13697;DHT22;6920;50.080;8.226;2022-10-16T18:45:06;16.40;99.90
13697;DHT22;6920;50.080;8.226;2022-10-16T18:47:36;16.30;99.90
13697;DHT22;6920;50.080;8.226;2022-10-16T18:50:06;16.30;99.90
13697;DHT22;6920;50.080;8.226;2022-10-16T18:52:34;16.20;99.90
13697;DHT22;6920;50.080;8.226;2022-10-16T18:55:03;16.20;99.90
13697;DHT22;6920;50.080;8.226;2022-10-16T18:57:36;16.20;99.90
13697;DHT22;6920;50.080;8.226;2022-10-16T19:02:45;16.10;99.90
13697;DHT22;6920;50.080;8.226;2022-10-16T19:05:17;16.10;99.90
13697;DHT22;6920;50.080;8.226;2022-10-16T19:08:03;16.10;99.90
13697;DHT22;6920;50.080;8.226;2022-10-16T19:10:36;15.90;99.90
13697;DHT22;6920;50.080;8.226;2022-10-16T19:13:08;15.80;99.90
13697;DHT22;6920;50.080;8.226;2022-10-16T19:15:50;15.80;99.90
13697;DHT22;6920;50.080;8.226;2022-10-16T19:18:40;15.80;99.90
13697;DHT22;6920;50.080;8.226;2022-10-16T19:21:27;15.80;99.90
13697;DHT22;6920;50.080;8.226;2022-10-16T19:23:56;15.70;99.90
13697;DHT22;6920;50.080;8.226;2022-10-16T19:26:28;15.70;99.90
13697;DHT22;6920;50.080;8.226;2022-10-16T19:29:02;15.50;99.90
13697;DHT22;6920;50.080;8.226;2022-10-16T19:31:31;15.70;99.90
13697;DHT22;6920;50.080;8.226;2022-10-16T19:34:05;15.70;99.90
13697;DHT22;6920;50.080;8.226;2022-10-16T19:36:39;15.70;99.90
13697;DHT22;6920;50.080;8.226;2022-10-16T19:39:09;15.80;99.90
13697;DHT22;6920;50.080;8.226;2022-10-16T19:41:43;15.80;99.90
13697;DHT22;6920;50.080;8.226;2022-10-16T19:44:17;15.70;99.90
13697;DHT22;6920;50.080;8.226;2022-10-16T19:46:57;15.70;99.90
13697;DHT22;6920;50.080;8.226;2022-10-16T19:49:38;15.60;99.90
13697;DHT22;6920;50.080;8.226;2022-10-16T19:52:12;15.60;99.90
13697;DHT22;6920;50.080;8.226;2022-10-16T19:54:45;15.60;99.90
13697;DHT22;6920;50.080;8.226;2022-10-16T19:57:13;15.60;99.90
13697;DHT22;6920;50.080;8.226;2022-10-16T19:59:46;15.60;99.90
13697;DHT22;6920;50.080;8.226;2022-10-16T20:02:16;15.60;99.90
13697;DHT22;6920;50.080;8.226;2022-10-16T20:04:53;15.60;99.90
13697;DHT22;6920;50.080;8.226;2022-10-16T20:07:36;15.60;99.90
13697;DHT22;6920;50.080;8.226;2022-10-16T20:10:10;15.60;99.90
13697;DHT22;6920;50.080;8.226;2022-10-16T20:12:55;15.60;99.90
13697;DHT22;6920;50.080;8.226;2022-10-16T20:15:48;15.50;99.90
13697;DHT22;6920;50.080;8.226;2022-10-16T20:18:20;15.40;99.90
13697;DHT22;6920;50.080;8.226;2022-10-16T20:21:08;15.30;99.90
13697;DHT22;6920;50.080;8.226;2022-10-16T20:23:39;15.30;99.90
13697;DHT22;6920;50.080;8.226;2022-10-16T20:26:23;15.30;99.90
13697;DHT22;6920;50.080;8.226;2022-10-16T20:29:05;15.30;99.90
13697;DHT22;6920;50.080;8.226;2022-10-16T20:31:34;15.40;99.90
13697;DHT22;6920;50.080;8.226;2022-10-16T20:34:08;15.40;99.90
13697;DHT22;6920;50.080;8.226;2022-10-16T20:36:40;15.30;99.90
13697;DHT22;6920;50.080;8.226;2022-10-16T20:39:24;15.40;99.90
13697;DHT22;6920;50.080;8.226;2022-10-16T20:42:04;15.30;99.90
13697;DHT22;6920;50.080;8.226;2022-10-16T20:44:35;15.20;99.90
13697;DHT22;6920;50.080;8.226;2022-10-16T20:47:03;15.20;99.90
13697;DHT22;6920;50.080;8.226;2022-10-16T20:49:39;15.20;99.90
13697;DHT22;6920;50.080;8.226;2022-10-16T20:52:08;15.30;99.90
13697;DHT22;6920;50.080;8.226;2022-10-16T20:54:38;15.30;99.90
13697;DHT22;6920;50.080;8.226;2022-10-16T20:59:35;15.20;99.90
13697;DHT22;6920;50.080;8.226;2022-10-16T21:02:09;15.20;99.90
13697;DHT22;6920;50.080;8.226;2022-10-16T21:04:37;15.20;99.90
13697;DHT22;6920;50.080;8.226;2022-10-16T21:07:12;15.10;99.90
13697;DHT22;6920;50.080;8.226;2022-10-16T21:12:18;15.10;99.90